GBYDGMMX

Guest
Details From GBYD - Banjul Intl
To GMMX - MENARA
Flight Number -
Tags generated
Created
Modified
Stats Distance 1,234 nm / 2,286 km
Max Altitude 35,000 ft / 10,668 m
Waypoints 13
Social Downloads 0
Likes 0
Share VATSIM

Download

Looking for another format? Having issues loading an existing format? Contact us
Advertisement - Login to hide

Notes

Basic altitude profile: - Ascent Rate: 2500ft/min - Ascent Speed: 250kts - Cruise Altitude: 35000ft - Cruise Speed: 420kts - Descent Rate: 1500ft/min - Descent Speed: 250kts Options: - Use NATs: yes - Use PACOTS: yes - Use low airways: yes - Use high airways: yes

Route

GBYD NURAS ENURI UM974 VOTAB UR620 AR UR975 ADM GMMX

ID Type Via Altitude Latitude Longitude Leg Dist Tot Dist Heading (true) Name
O GBYD APT - 0 ft / 0 m 13.33796˚ -16.65221˚ - 0 nm - Banjul Intl
NURAS FIX - 29,800 ft / 9,083 m 14.22222˚ -15.48417˚ 86 nm 86 nm 52° / 52° -
ENURI FIX - 35,000 ft / 10,668 m 14.76278˚ -15.01667˚ 42 nm 128 nm 40° / 40° -
VOTAB FIX UM974 (AWY-HI) 35,000 ft / 10,668 m 14.76333˚ -14.62917˚ 22 nm 151 nm 90° / 90° -
POVIN FIX UR620 (AWY-HI) 35,000 ft / 10,668 m 16.84667˚ -14.07111˚ 129 nm 280 nm 14° / 15° -
TIMOX FIX UR620 (AWY-HI) 35,000 ft / 10,668 m 17.86500˚ -13.79361˚ 63 nm 343 nm 15° / 15° -
AR NDB UR620 (AWY-HI) 35,000 ft / 10,668 m 20.50231˚ -13.05908˚ 163 nm 507 nm 15° / 15° ATAR NDB
ZRT VOR UR975 (AWY-HI) 35,000 ft / 10,668 m 22.75853˚ -12.46158˚ 139 nm 646 nm 14° / 14° ZOUERAT VOR
BIMOG FIX UR975 (AWY-HI) 35,000 ft / 10,668 m 25.21667˚ -11.55000˚ 155 nm 802 nm 19° / 19° -
ECHED FIX UR975 (AWY-HI) 35,000 ft / 10,668 m 27.66667˚ -10.51667˚ 157 nm 960 nm 20° / 21° -
MOROX FIX UR975 (AWY-HI) 35,000 ft / 10,668 m 29.00000˚ -10.00889˚ 84 nm 1044 nm 18° / 19° -
ADM VOR UR975 (AWY-HI) 23,500 ft / 7,163 m 30.32194˚ -9.38333˚ 85 nm 1130 nm 22° / 23° AGADIR VOR-DME
O GMMX APT - 0 ft / 0 m 31.60692˚ -8.03627˚ 103 nm 1234 nm 42° / 42° MENARA

Altitude Profile

Advertisement - Login to hide

Weather


0- 5 10 15 20 25 30 35+ Temperature / ° C

Clouds and Precipitation
Forecast for 2017-12-18 06:00 UTC. Updated 15 minutes ago

Ground ~20,000 ft ~40,000 ft Winds

GBYD

Details ICAO GBYD (BJL)
Name Banjul Intl
Region The Gambia
Timezone Africa/Banjul (UTC+0.0)
Stats Elevation 95 ft / 29 m (AMSL)
Location 13.337960° -16.652206°
Runways 1
Magnetic Variation 7.310° W

METAR

Not found

TAF

TAF GBYD 172330Z 1800/1906 06008KT CAVOK= TAF GMMN 172300Z 1800/1906 12003KT 8000 FEW016 BECMG 1800/1803 3000 BR BKN010 PROB30 TEMPO 1803/1806 0600 FG BKN004 BECMG 1808/1810 18010KT 8000 FEW016 BECMG 1812/1814 36014KT CAVOK

Decode

Departure Runways

ID Width Length Bearing (true) Bearing (mag) Surface Threshold Offset Overrun Length
14 148 ft / 45 m 11,825 ft / 3,604 m 130.82° 138.13° Asphalt 500 ft / 152 m 197 ft / 60 m
32 148 ft / 45 m 11,825 ft / 3,604 m 310.83° 318.14° Asphalt 500 ft / 152 m 393 ft / 120 m

GMMX

Details ICAO GMMX (RAK)
Name MENARA
Region Morocco
Timezone Africa/Casablanca (UTC+0.0)
Stats Elevation 1,545 ft / 471 m (AMSL)
Location 31.606920° -8.036265°
Runways 1
Magnetic Variation 1.998° W

METAR

GMMX 180330Z 10004KT CAVOK 08/06 Q1024 NOSIG

Decode

TAF

TAF GMMX 172300Z 1800/1906 02006KT 8000 NSC TEMPO 1805/1810 3000 BR BKN010

Decode

Destination Runways

ID Width Length Bearing (true) Bearing (mag) Surface Threshold Offset Overrun Length
10 148 ft / 45 m 10,169 ft / 3,100 m 95.99° 97.99° Asphalt 918 ft / 280 m 0 ft / 0 m
28 148 ft / 45 m 10,169 ft / 3,100 m 276.00° 278.00° Asphalt 0 ft / 0 m 0 ft / 0 m

Approach Navaids

Runway Type Ident Frequency Range Bearing (true) Bearing (mag) Slope Elevation
10 Localiser MAR 109.70 MHz 18 nm / 33 km 96.03° 98.02° - 1,545 ft / 471 m (AMSL)
10 Glidescope MAR 109.70 MHz 10 nm / 19 km 96.00° 97.99° 3.00° 1,558 ft / 475 m (AMSL)